Time;durP1;ratioP1;P1;durP2;ratioP2;P2;SDS_P1;SDS_P2;PMS_P1;PMS_P2;Temp;Humidity;BMP_temperature;BMP_pressure;BME280_temperature;BME280_humidity;BME280_pressure;Samples;Min_cycle;Max_cycle;Signal;HPM_P1;HPM_P2
2023/04/14 00:00:45;;;;;;;4.57;3.37;;;9.60;82.40;;;12.18;57.20;100883.91;5033713;28;20194;-57
2023/04/14 00:03:12;;;;;;;4.07;3.57;;;9.50;82.20;;;12.18;57.18;100891.81;5033597;28;20727;-59
2023/04/14 00:05:39;;;;;;;4.57;3.13;;;9.60;82.30;;;12.18;56.92;100891.81;5033799;28;20218;-59
2023/04/14 00:08:06;;;;;;;5.13;3.97;;;9.60;82.20;;;12.15;56.87;100884.25;5033718;28;20276;-63
2023/04/14 00:10:33;;;;;;;4.37;3.30;;;9.60;81.90;;;12.15;56.74;100888.72;5032088;28;20202;-57
2023/04/14 00:13:00;;;;;;;4.17;2.97;;;9.60;81.80;;;12.10;56.91;100883.16;5033859;28;20594;-57
2023/04/14 00:15:28;;;;;;;5.63;3.87;;;9.50;81.30;;;12.03;56.99;100890.97;5033384;28;20280;-60
2023/04/14 00:17:56;;;;;;;4.40;3.47;;;9.60;81.20;;;11.97;56.84;100889.06;5032884;28;20249;-57
2023/04/14 00:20:23;;;;;;;5.27;3.70;;;9.50;81.40;;;11.95;57.69;100891.06;5033295;28;20191;-56
2023/04/14 00:22:50;;;;;;;5.30;3.83;;;9.40;82.80;;;11.98;57.62;100890.69;5033664;28;20194;-58
2023/04/14 00:25:18;;;;;;;4.73;3.67;;;9.40;82.30;;;12.01;57.22;100890.34;5033321;28;20209;-58
2023/04/14 00:27:45;;;;;;;5.40;3.60;;;9.40;82.30;;;12.03;57.35;100896.25;5033498;28;20229;-57
2023/04/14 00:30:12;;;;;;;3.60;3.30;;;9.50;82.50;;;12.06;57.32;100895.91;5032284;28;20198;-61
2023/04/14 00:32:39;;;;;;;3.43;3.13;;;9.50;82.20;;;12.06;56.73;100897.72;5033662;28;20324;-59
2023/04/14 00:35:08;;;;;;;6.03;3.60;;;9.50;81.80;;;12.02;56.64;100902.53;5035908;28;20206;-59
2023/04/14 00:37:35;;;;;;;3.47;3.13;;;9.50;81.40;;;11.99;56.58;100900.25;5033800;28;20195;-56
2023/04/14 00:40:02;;;;;;;4.27;3.00;;;9.40;81.30;;;11.97;57.00;100904.91;5033297;28;20202;-56
2023/04/14 00:42:30;;;;;;;5.37;3.17;;;9.40;81.30;;;11.95;57.04;100906.91;5033535;28;20199;-60
2023/04/14 00:44:57;;;;;;;3.80;3.37;;;9.40;81.30;;;11.94;56.89;100905.25;5033018;28;20250;-58
2023/04/14 00:47:25;;;;;;;3.17;2.87;;;9.40;81.30;;;11.94;56.77;100913.16;5033474;28;20221;-57
2023/04/14 00:49:52;;;;;;;4.47;2.73;;;9.40;81.40;;;11.94;56.50;100904.41;5033702;28;20191;-62
2023/04/14 00:52:24;;;;;;;3.27;2.93;;;9.30;81.30;;;11.94;56.75;100915.78;5037233;28;20199;-59
2023/04/14 00:54:51;;;;;;;3.53;2.90;;;9.30;81.40;;;11.93;56.86;100922.06;5036594;28;20722;-57
2023/04/14 00:57:18;;;;;;;4.33;3.17;;;9.30;81.60;;;11.92;56.92;100915.16;5036600;28;20198;-57
2023/04/14 00:59:45;;;;;;;4.50;3.37;;;9.30;81.60;;;11.92;56.99;100919.59;5036910;28;20198;-58
2023/04/14 01:02:12;;;;;;;3.90;2.70;;;9.30;81.60;;;11.92;56.70;100916.97;5036751;28;20187;-59
2023/04/14 01:04:39;;;;;;;3.77;2.90;;;9.30;81.60;;;11.91;56.70;100916.16;5036471;28;20211;-59
2023/04/14 01:07:24;;;;;;;4.87;3.57;;;9.30;81.60;;;11.90;56.80;100917.16;5044864;28;20290;-60
2023/04/14 01:09:54;;;;;;;4.03;2.90;;;9.30;81.70;;;11.90;56.73;100922.44;5018566;28;20664;-56
2023/04/14 01:12:37;;;;;;;4.40;2.47;;;9.30;81.80;;;11.87;56.63;100920.16;5036823;28;20664;-59
2023/04/14 01:15:16;;;;;;;5.83;3.27;;;9.30;81.70;;;11.87;56.89;100917.50;5036960;28;20220;-58
2023/04/14 01:17:51;;;;;;;4.43;3.33;;;9.30;81.90;;;11.89;57.01;100917.31;5037073;28;20183;-58
2023/04/14 01:20:28;;;;;;;5.40;3.27;;;9.30;82.10;;;11.89;57.29;100918.16;5036585;28;20540;-57
2023/04/14 01:23:05;;;;;;;3.40;2.80;;;9.30;82.10;;;11.89;56.74;100928.69;5036242;28;20232;-57
2023/04/14 01:26:19;;;;;;;5.00;3.00;;;9.30;81.90;;;11.84;56.97;100931.03;5035473;28;20210;-55
2023/04/14 01:29:42;;;;;;;3.47;3.17;;;9.30;81.90;;;11.80;56.62;100928.94;5036073;28;20209;-56
2023/04/14 01:32:20;;;;;;;3.27;2.97;;;9.30;82.60;;;11.81;56.79;100925.31;5036259;28;20550;-56
2023/04/14 01:34:54;;;;;;;5.60;3.60;;;9.20;81.90;;;11.81;56.97;100931.41;5035640;28;20216;-56
2023/04/14 01:37:29;;;;;;;6.20;3.30;;;9.20;82.00;;;11.80;56.89;100924.50;5036089;28;20186;-58
2023/04/14 01:40:01;;;;;;;3.80;3.23;;;9.20;82.00;;;11.81;56.89;100930.59;5034891;28;20217;-60
2023/04/14 01:42:35;;;;;;;5.73;3.50;;;9.20;82.00;;;11.79;57.14;100928.13;5036509;28;20187;-58
2023/04/14 01:45:10;;;;;;;4.47;3.83;;;9.20;82.20;;;11.78;56.92;100926.50;5036081;28;20214;-61
2023/04/14 01:47:41;;;;;;;5.13;3.77;;;9.20;82.20;;;11.74;57.33;100930.50;5035441;28;20220;-58
2023/04/14 01:50:12;;;;;;;5.47;3.70;;;9.20;81.90;;;11.71;56.77;100930.84;5036055;28;20270;-59
2023/04/14 01:52:43;;;;;;;4.67;3.70;;;9.10;81.70;;;11.69;57.13;100926.75;5036115;28;20183;-57
2023/04/14 01:55:14;;;;;;;5.90;4.30;;;9.10;82.00;;;11.66;57.60;100930.50;5035518;28;20574;-58
2023/04/14 01:57:45;;;;;;;5.90;3.73;;;9.10;82.40;;;11.66;57.47;100933.16;5035505;28;20187;-56
2023/04/14 02:00:15;;;;;;;5.80;3.70;;;9.10;82.40;;;11.67;57.85;100929.50;5035608;28;20201;-57
2023/04/14 02:02:47;;;;;;;5.57;3.20;;;9.10;82.50;;;11.68;57.83;100931.19;5035952;28;20182;-59
2023/04/14 02:05:17;;;;;;;6.27;4.03;;;9.10;82.30;;;11.70;57.24;100928.34;5035224;28;20222;-58
2023/04/14 02:07:46;;;;;;;3.90;3.50;;;9.10;82.60;;;11.68;57.55;100931.19;5034065;28;20308;-59
2023/04/14 02:10:16;;;;;;;7.77;3.40;;;9.10;82.80;;;11.71;57.10;100930.00;5035859;28;20199;-58
2023/04/14 02:12:44;;;;;;;4.87;3.90;;;9.10;82.50;;;11.68;57.35;100925.91;5035923;28;20190;-58
2023/04/14 02:15:16;;;;;;;5.20;4.20;;;9.10;82.30;;;11.68;57.05;100930.34;5036196;28;20245;-59
2023/04/14 02:17:48;;;;;;;3.73;3.23;;;9.10;82.10;;;11.64;57.20;100934.31;5037611;28;20214;-58
2023/04/14 02:20:16;;;;;;;4.53;4.13;;;9.00;81.90;;;11.61;56.68;100930.22;5042758;28;20191;-57
2023/04/14 02:22:43;;;;;;;7.23;4.20;;;9.00;81.80;;;11.56;57.30;100938.66;5043073;28;20195;-60
2023/04/14 02:25:10;;;;;;;6.03;4.83;;;8.90;81.60;;;11.53;57.08;100933.72;5037202;28;20218;-58
2023/04/14 02:27:47;;;;;;;5.00;3.67;;;8.90;82.20;;;11.51;57.13;100948.06;5034795;28;20694;-59
2023/04/14 02:30:21;;;;;;;5.37;3.87;;;8.90;82.20;;;11.47;57.00;100939.72;5033882;28;20310;-56
2023/04/14 02:33:00;;;;;;;5.93;4.37;;;8.80;82.30;;;11.45;57.42;100946.16;5034821;28;20186;-60
2023/04/14 02:35:36;;;;;;;6.30;5.07;;;8.90;83.00;;;11.48;57.63;100945.81;5034507;28;20216;-59
2023/04/14 02:38:12;;;;;;;6.60;4.50;;;8.80;83.00;;;11.49;57.74;100953.53;5034949;28;20192;-58
2023/04/14 02:40:42;;;;;;;5.57;4.33;;;8.90;83.50;;;11.53;58.33;100951.34;5034819;28;20198;-58
2023/04/14 02:43:16;;;;;;;4.93;4.20;;;8.90;83.70;;;11.53;57.73;100949.53;5034723;28;20190;-60
2023/04/14 02:45:47;;;;;;;5.63;4.00;;;8.90;83.40;;;11.58;58.33;100951.66;5034621;28;20232;-61
2023/04/14 02:48:20;;;;;;;4.97;3.47;;;9.00;83.50;;;11.62;58.13;100947.69;5034664;28;20202;-58
2023/04/14 02:50:52;;;;;;;7.03;3.93;;;9.10;82.80;;;11.65;57.36;100952.59;5034611;28;20197;-57
2023/04/14 02:53:23;;;;;;;5.27;3.67;;;9.10;82.30;;;11.65;56.81;100963.13;5034048;28;20209;-60
2023/04/14 02:55:53;;;;;;;3.87;3.47;;;9.10;81.40;;;11.65;56.36;100963.13;5034619;28;20217;-59
2023/04/14 02:58:20;;;;;;;4.93;3.80;;;9.10;80.80;;;11.57;56.18;100961.41;5034436;28;20254;-58
2023/04/14 03:00:51;;;;;;;5.33;3.83;;;9.00;80.10;;;11.50;56.36;100964.91;5034091;28;20707;-59
2023/04/14 03:03:20;;;;;;;5.20;4.00;;;8.90;80.00;;;11.42;56.07;100964.94;5034144;28;20196;-60
2023/04/14 03:05:47;;;;;;;4.57;4.17;;;8.80;80.20;;;11.33;56.20;100963.34;5034245;28;20683;-59
2023/04/14 03:08:15;;;;;;;4.30;3.90;;;8.70;80.60;;;11.25;56.08;100966.84;5034128;28;20245;-58
2023/04/14 03:10:46;;;;;;;4.47;3.70;;;8.70;80.60;;;11.17;56.46;100968.72;5034443;28;20187;-59
2023/04/14 03:13:16;;;;;;;4.83;3.93;;;8.60;80.80;;;11.11;56.51;100966.75;5033145;28;20201;-58
2023/04/14 03:15:45;;;;;;;5.27;4.20;;;8.50;81.20;;;11.04;57.15;100963.19;5034100;28;20214;-57
2023/04/14 03:18:14;;;;;;;4.53;4.13;;;8.40;81.40;;;10.98;57.18;100969.16;5033904;28;20201;-62
2023/04/14 03:20:44;;;;;;;3.93;3.53;;;8.40;81.90;;;10.92;57.10;100972.44;5034541;28;20269;-59
2023/04/14 03:23:17;;;;;;;5.33;3.97;;;8.30;82.10;;;10.87;57.90;100973.78;5034451;28;20183;-58
2023/04/14 03:25:46;;;;;;;4.40;4.00;;;8.30;82.30;;;10.84;57.64;100974.13;5034128;28;20695;-58
2023/04/14 03:28:21;;;;;;;6.13;4.10;;;8.20;82.20;;;10.80;57.66;100975.47;5033621;28;20215;-59
2023/04/14 03:30:53;;;;;;;4.83;4.13;;;8.20;82.60;;;10.81;58.54;100973.66;5034083;28;20186;-61
2023/04/14 03:33:27;;;;;;;6.10;4.30;;;8.20;83.30;;;10.82;58.30;100978.72;5033316;28;20198;-57
2023/04/14 03:35:59;;;;;;;4.90;4.33;;;8.20;83.30;;;10.83;57.85;100972.50;5034306;28;20630;-58
2023/04/14 03:38:27;;;;;;;5.07;4.53;;;8.20;82.90;;;10.85;58.04;100985.47;5033891;28;20171;-56
2023/04/14 03:40:58;;;;;;;5.80;4.63;;;8.20;83.30;;;10.86;58.12;100982.66;5033722;28;20277;-59
2023/04/14 03:43:28;;;;;;;5.03;4.23;;;8.30;83.40;;;10.89;58.34;100976.22;5033522;28;20198;-58
2023/04/14 03:45:56;;;;;;;6.27;4.97;;;8.30;82.90;;;10.91;57.87;100978.72;5034192;28;20663;-59
2023/04/14 03:48:28;;;;;;;6.30;4.67;;;8.30;82.30;;;10.87;58.03;100979.06;5033774;28;20210;-57
2023/04/14 03:50:58;;;;;;;5.70;4.53;;;8.30;82.30;;;10.85;58.01;100981.03;5034153;28;20191;-55
2023/04/14 03:53:29;;;;;;;6.73;4.50;;;8.30;82.40;;;10.83;57.50;100988.28;5033290;28;20228;-56
2023/04/14 03:55:58;;;;;;;5.00;4.47;;;8.20;82.20;;;10.81;57.38;100981.56;5033899;28;20218;-58
2023/04/14 03:58:29;;;;;;;5.33;4.83;;;8.20;82.00;;;10.79;57.45;100991.44;5033063;28;20229;-60
2023/04/14 04:00:58;;;;;;;6.17;5.13;;;8.20;82.40;;;10.76;57.58;100987.31;5014236;28;20526;-57
2023/04/14 04:03:27;;;;;;;5.57;4.97;;;8.20;82.00;;;10.72;57.73;101001.78;5013167;28;20493;-59
2023/04/14 04:05:56;;;;;;;6.27;4.93;;;8.10;81.70;;;10.67;56.93;100998.84;5014047;28;20270;-59
2023/04/14 04:08:24;;;;;;;7.13;5.17;;;8.10;82.10;;;10.62;57.09;100995.94;5013538;28;20218;-57
2023/04/14 04:11:06;;;;;;;7.03;5.37;;;8.00;82.10;;;10.57;57.86;100995.59;5023272;28;20206;-60
2023/04/14 04:13:40;;;;;;;5.67;5.10;;;8.00;82.30;;;10.55;57.43;100999.41;5033914;28;20183;-60
2023/04/14 04:16:12;;;;;;;6.00;4.53;;;7.90;83.20;;;10.51;57.96;101004.16;5033053;28;20186;-58
2023/04/14 04:18:45;;;;;;;5.87;4.77;;;7.90;83.00;;;10.53;58.01;100996.13;5033351;28;20179;-60
2023/04/14 04:21:18;;;;;;;5.67;4.60;;;7.90;83.30;;;10.55;58.24;100994.97;5033316;28;20194;-61
2023/04/14 04:23:51;;;;;;;5.43;4.90;;;8.00;83.20;;;10.57;58.60;100997.41;5033297;28;20274;-57
2023/04/14 04:26:18;;;;;;;6.43;4.87;;;8.00;83.30;;;10.60;57.97;100995.25;5036637;28;20190;-59
2023/04/14 04:28:46;;;;;;;7.40;4.67;;;8.00;82.70;;;10.59;57.33;100998.88;5037101;28;20340;-60
2023/04/14 04:31:14;;;;;;;6.60;4.90;;;8.00;82.00;;;10.59;56.97;101005.94;5036887;28;20194;-58
2023/04/14 04:33:44;;;;;;;7.83;4.93;;;8.00;81.40;;;10.55;57.43;101000.22;5036436;28;20217;-59
2023/04/14 04:36:12;;;;;;;5.73;4.60;;;8.00;81.20;;;10.51;57.10;101004.16;5037003;28;20191;-58
2023/04/14 04:38:41;;;;;;;7.40;5.03;;;7.90;81.10;;;10.46;57.23;101011.72;5037059;28;20195;-59
2023/04/14 04:41:20;;;;;;;6.83;4.80;;;7.80;81.00;;;10.40;57.27;101008.94;5037297;28;20205;-57
2023/04/14 04:43:47;;;;;;;5.67;5.07;;;7.80;81.40;;;10.37;57.29;101011.91;5031624;28;20198;-57
2023/04/14 04:46:38;;;;;;;7.23;4.97;;;7.70;81.70;;;10.32;58.22;101017.66;5036903;28;20191;-61
2023/04/14 04:49:05;;;;;;;5.63;5.03;;;7.70;82.40;;;10.31;58.03;101018.66;5037070;28;20210;-59
2023/04/14 04:51:32;;;;;;;5.70;5.17;;;7.70;83.00;;;10.33;58.50;101021.94;5036782;28;20201;-60
2023/04/14 04:54:00;;;;;;;6.37;5.37;;;7.70;83.70;;;10.38;58.86;101024.09;5036443;28;20284;-56
2023/04/14 04:56:27;;;;;;;5.83;5.23;;;7.70;83.60;;;10.44;58.07;101021.59;5036828;28;20202;-59
2023/04/14 04:58:54;;;;;;;4.97;4.47;;;7.80;83.40;;;10.50;57.49;101017.50;5036703;28;20190;-60
2023/04/14 05:01:20;;;;;;;6.83;5.33;;;7.90;82.30;;;10.51;56.76;101017.31;5036503;28;20198;-58
2023/04/14 05:03:47;;;;;;;5.73;4.83;;;7.90;81.10;;;10.49;56.47;101027.19;5036092;28;20218;-60
2023/04/14 05:06:15;;;;;;;5.43;4.50;;;7.90;80.60;;;10.43;56.60;101022.59;5036367;28;20286;-59
2023/04/14 05:08:42;;;;;;;5.47;4.17;;;7.80;80.30;;;10.36;56.90;101021.63;5035254;28;20309;-60
2023/04/14 05:11:10;;;;;;;6.33;4.37;;;7.70;80.30;;;10.31;56.40;101023.94;5051671;28;20190;-58
2023/04/14 05:13:37;;;;;;;5.30;4.77;;;7.70;81.00;;;10.28;56.80;101024.25;5035487;28;20228;-62
2023/04/14 05:16:07;;;;;;;6.93;4.83;;;7.60;81.40;;;10.29;57.56;101020.66;5036341;28;20195;-59
2023/04/14 05:18:35;;;;;;;6.70;5.33;;;7.60;82.40;;;10.33;57.86;101027.22;5036994;28;20190;-60
2023/04/14 05:21:03;;;;;;;5.00;4.50;;;7.60;82.10;;;10.36;57.33;101021.63;5036412;28;20667;-59
2023/04/14 05:23:33;;;;;;;5.90;5.30;;;7.70;82.50;;;10.41;56.64;101026.38;5035903;28;20531;-58
2023/04/14 05:26:00;;;;;;;5.20;4.50;;;7.70;81.50;;;10.42;56.91;101031.47;5035566;28;20199;-56
2023/04/14 05:28:48;;;;;;;5.73;4.40;;;7.70;81.60;;;10.42;57.29;101034.09;5034674;28;20273;-58
2023/04/14 05:31:15;;;;;;;5.40;4.77;;;7.70;81.60;;;10.44;56.77;101037.38;5035502;28;20209;-61
2023/04/14 05:33:42;;;;;;;7.20;5.43;;;7.70;81.90;;;10.48;57.22;101036.09;5034516;28;20256;-61
2023/04/14 05:36:10;;;;;;;4.63;4.10;;;7.80;82.30;;;10.53;56.81;101033.75;5034885;28;20197;-58
2023/04/14 05:38:40;;;;;;;5.63;4.40;;;7.80;82.00;;;10.55;56.39;101041.50;5036094;28;20197;-59
2023/04/14 05:41:08;;;;;;;4.60;3.70;;;7.90;81.30;;;10.50;56.68;101039.38;5036350;28;20205;-57
2023/04/14 05:43:35;;;;;;;5.07;4.57;;;7.80;80.70;;;10.47;56.37;101038.88;5050796;28;20197;-60
2023/04/14 05:46:04;;;;;;;4.67;4.10;;;7.80;80.60;;;10.42;56.13;101036.75;5035290;28;20240;-59
2023/04/14 05:48:32;;;;;;;6.47;4.63;;;7.80;80.70;;;10.40;56.22;101038.72;5035419;28;20573;-61
2023/04/14 05:50:59;;;;;;;13.70;11.43;;;7.70;80.80;;;10.41;56.99;101035.09;5035346;28;20205;-60
2023/04/14 05:53:26;;;;;;;16.50;11.43;;;7.70;81.80;;;10.46;57.33;101032.78;5034919;28;20203;-60
2023/04/14 05:55:55;;;;;;;12.97;7.27;;;7.70;82.60;;;10.55;57.80;101037.06;5035104;28;20215;-59
2023/04/14 05:58:25;;;;;;;6.20;5.60;;;7.80;83.00;;;10.64;57.49;101036.06;5035276;28;20197;-60
2023/04/14 06:00:52;;;;;;;7.83;5.80;;;7.90;82.80;;;10.71;57.05;101031.75;5015248;28;20199;-58
2023/04/14 06:03:20;;;;;;;5.43;4.93;;;8.00;82.70;;;10.81;56.95;101036.84;5014919;28;20180;-61
2023/04/14 06:05:49;;;;;;;6.47;5.07;;;8.00;82.70;;;10.91;57.64;101037.44;5015448;28;20223;-57
2023/04/14 06:08:17;;;;;;;7.33;5.30;;;8.10;82.80;;;11.02;56.92;101039.75;5014677;28;20195;-61
2023/04/14 06:10:44;;;;;;;6.80;4.83;;;8.20;82.90;;;11.15;57.40;101044.47;5024096;28;20197;-57
2023/04/14 06:13:11;;;;;;;7.83;5.37;;;8.30;83.00;;;11.26;57.19;101046.72;5034184;28;20205;-58
2023/04/14 06:15:38;;;;;;;5.57;5.07;;;8.50;83.50;;;11.35;57.09;101043.06;5049584;28;20575;-60
2023/04/14 06:18:05;;;;;;;6.03;4.57;;;8.50;82.50;;;11.46;56.53;101038.22;5035158;28;20199;-56
2023/04/14 06:20:34;;;;;;;9.07;4.90;;;8.60;82.40;;;11.58;56.96;101030.72;5034497;28;20199;-59
2023/04/14 06:23:01;;;;;;;8.60;6.60;;;8.70;82.30;;;11.69;56.25;101037.47;5017272;28;20202;-60
2023/04/14 06:25:29;;;;;;;5.47;5.00;;;8.80;82.20;;;11.79;56.54;101033.59;5034452;28;20286;-62
2023/04/14 06:27:56;;;;;;;6.13;5.00;;;8.90;82.00;;;11.89;55.89;101034.19;5034901;28;20187;-55
2023/04/14 06:30:24;;;;;;;8.50;7.03;;;9.00;81.80;;;11.99;55.95;101028.69;5034337;28;20218;-59
2023/04/14 06:32:52;;;;;;;8.07;6.23;;;9.10;81.60;;;12.10;55.90;101034.38;5034093;28;20547;-56
2023/04/14 06:35:20;;;;;;;7.17;5.87;;;9.20;81.60;;;12.19;55.44;101019.31;5034967;28;20217;-58
2023/04/14 06:38:01;;;;;;;4.97;4.30;;;9.30;81.40;;;12.31;55.68;101033.72;5034293;28;20182;-57
2023/04/14 06:40:28;;;;;;;7.03;4.97;;;9.40;81.30;;;12.38;54.96;101033.81;5034436;28;20252;-61
2023/04/14 06:42:55;;;;;;;5.83;4.67;;;9.50;80.90;;;12.45;55.21;101030.28;5034568;28;20221;-56
2023/04/14 06:45:22;;;;;;;5.83;5.20;;;9.60;80.70;;;12.48;54.84;101029.91;5033654;28;20218;-58
2023/04/14 06:47:49;;;;;;;8.00;5.10;;;9.60;80.40;;;12.57;55.02;101033.31;5034473;28;20190;-59
2023/04/14 06:50:16;;;;;;;5.43;4.13;;;9.70;80.50;;;12.65;55.31;101033.22;5033829;28;20222;-58
2023/04/14 06:52:43;;;;;;;7.40;5.20;;;9.80;80.70;;;12.78;55.06;101036.06;5049324;28;20226;-57
2023/04/14 06:55:12;;;;;;;8.17;5.47;;;9.90;80.80;;;12.90;55.32;101039.88;5034161;28;20574;-60
2023/04/14 06:57:39;;;;;;;7.17;5.30;;;10.00;79.50;;;12.99;54.52;101038.78;5034227;28;20217;-60
2023/04/14 07:00:09;;;;;;;6.37;5.37;;;10.10;79.30;;;13.05;54.43;101032.75;5033930;28;20204;-60
2023/04/14 07:02:54;;;;;;;10.80;5.40;;;10.20;79.20;;;13.13;54.56;101029.25;5034965;28;20248;-55
2023/04/14 07:05:28;;;;;;;7.73;5.27;;;10.30;78.90;;;13.15;54.21;101038.63;5033445;28;20214;-59
2023/04/14 07:07:55;;;;;;;6.63;4.70;;;10.40;78.40;;;13.15;54.03;101028.06;5034012;28;20217;-61
2023/04/14 07:10:23;;;;;;;6.17;4.50;;;10.40;77.60;;;13.16;53.52;101027.06;5032921;28;20218;-60
2023/04/14 07:12:50;;;;;;;5.53;4.00;;;10.50;77.20;;;13.17;53.68;101026.03;5034258;28;20673;-59
2023/04/14 07:15:17;;;;;;;6.03;4.13;;;10.50;77.10;;;13.24;53.70;101026.94;5032608;28;20215;-62
2023/04/14 07:17:44;;;;;;;5.53;4.30;;;10.60;77.20;;;13.31;53.60;101025.19;5034353;28;20218;-58
2023/04/14 07:20:12;;;;;;;5.13;3.83;;;10.60;76.90;;;13.49;53.41;101035.38;5034150;28;20200;-60
2023/04/14 07:22:39;;;;;;;4.33;3.93;;;10.70;76.90;;;14.03;53.60;101027.81;5033080;28;20275;-60
2023/04/14 07:25:07;;;;;;;5.80;4.23;;;10.90;78.30;;;14.83;53.31;101028.25;5033064;28;20555;-56
2023/04/14 07:27:35;;;;;;;4.20;3.73;;;11.20;79.60;;;15.79;52.05;101021.91;5033466;28;20217;-62
2023/04/14 07:30:03;;;;;;;4.10;3.53;;;11.70;80.40;;;16.75;50.49;101024.00;5033838;28;20226;-58
2023/04/14 07:32:31;;;;;;;5.17;3.60;;;12.30;79.40;;;17.75;48.61;101028.75;5033162;28;20281;-58
2023/04/14 07:34:59;;;;;;;4.13;3.40;;;13.00;77.70;;;18.69;45.68;101016.13;5032928;28;20679;-58
2023/04/14 07:37:26;;;;;;;7.10;3.53;;;13.70;73.60;;;19.64;44.08;101018.09;5033305;28;20233;-61
2023/04/14 07:39:53;;;;;;;5.07;3.13;;;14.50;71.50;;;20.58;41.65;101019.91;5033438;28;20202;-61
2023/04/14 07:42:20;;;;;;;3.70;2.80;;;15.30;69.50;;;21.30;38.54;101022.03;5033073;28;20194;-59
2023/04/14 07:44:48;;;;;;;4.23;3.17;;;16.00;63.40;;;21.87;37.02;101036.25;5032740;28;20242;-59
2023/04/14 07:47:17;;;;;;;5.93;3.43;;;16.70;59.90;;;22.36;35.59;101034.69;5033303;28;20210;-57
2023/04/14 07:49:45;;;;;;;6.37;2.93;;;17.30;57.80;;;22.97;35.77;101031.00;5033527;28;20207;-59
2023/04/14 07:52:12;;;;;;;4.07;2.13;;;17.90;58.20;;;23.58;32.89;101021.03;5034140;28;20646;-58
2023/04/14 07:54:39;;;;;;;10.83;9.73;;;18.40;54.80;;;24.18;33.86;101017.03;5033962;28;20237;-60
2023/04/14 07:57:08;;;;;;;5.57;4.90;;;19.00;55.50;;;25.13;32.34;101028.66;5032929;28;20190;-61
2023/04/14 07:59:37;;;;;;;4.77;2.43;;;19.60;54.60;;;25.86;29.80;101019.47;5034065;28;20190;-61
2023/04/14 08:02:06;;;;;;;4.90;4.33;;;20.10;50.10;;;26.32;29.12;101021.09;5036077;28;20658;-60
2023/04/14 08:04:33;;;;;;;6.50;5.67;;;20.70;48.00;;;26.98;28.81;101023.69;5035998;28;20245;-62
2023/04/14 08:07:00;;;;;;;6.70;5.47;;;21.20;48.70;;;27.76;28.59;101020.06;5036653;28;20282;-58
2023/04/14 08:09:27;;;;;;;3.27;2.10;;;21.70;49.60;;;28.40;27.30;101024.44;5036636;28;20550;-58
2023/04/14 08:11:56;;;;;;;4.43;2.43;;;22.20;46.50;;;28.78;26.17;101021.63;5036207;28;20213;-60
2023/04/14 08:14:23;;;;;;;2.20;2.00;;;22.70;44.50;;;29.14;25.56;101026.59;5035996;28;20214;-60
2023/04/14 08:16:50;;;;;;;3.87;2.40;;;23.10;42.90;;;29.39;25.56;101021.69;5036507;28;20222;-58
2023/04/14 08:19:18;;;;;;;6.37;3.17;;;23.40;42.70;;;29.56;24.37;101025.78;5037051;28;20194;-61
2023/04/14 08:21:46;;;;;;;3.13;2.10;;;23.60;39.20;;;29.73;24.51;101020.66;5037031;28;20202;-58
2023/04/14 08:24:13;;;;;;;2.97;1.90;;;24.00;39.80;;;29.99;22.78;101019.19;5036909;28;20220;-60
2023/04/14 08:26:40;;;;;;;5.00;1.90;;;24.10;36.80;;;30.07;22.78;101021.22;5036444;28;20497;-59
2023/04/14 08:29:07;;;;;;;4.63;2.40;;;24.30;35.90;;;30.29;23.10;101017.84;5035932;28;20214;-59
2023/04/14 08:31:34;;;;;;;2.20;1.83;;;24.60;37.60;;;30.75;23.71;101016.75;5035992;28;20226;-60
2023/04/14 08:34:01;;;;;;;5.47;2.27;;;24.90;38.30;;;31.47;22.03;101016.09;5035760;28;20240;-60
2023/04/14 08:36:30;;;;;;;5.33;2.13;;;25.20;36.30;;;31.83;21.88;101020.41;5036251;28;20194;-61
2023/04/14 08:38:58;;;;;;;6.53;4.77;;;25.50;36.50;;;31.95;20.96;101026.09;5035420;28;20206;-59
2023/04/14 08:41:31;;;;;;;3.13;1.87;;;25.70;33.80;;;31.89;21.05;101024.63;5017733;28;20184;-60
2023/04/14 08:43:58;;;;;;;2.37;2.17;;;25.90;33.10;;;31.67;20.54;101027.31;5034856;28;20598;-58
2023/04/14 08:46:27;;;;;;;4.83;2.00;;;26.00;32.20;;;31.27;20.27;101025.47;5036300;28;20194;-58
2023/04/14 08:49:03;;;;;;;4.17;1.97;;;25.90;31.50;;;31.09;21.09;101031.88;5034377;28;20186;-59
2023/04/14 08:51:35;;;;;;;2.93;2.17;;;25.90;31.70;;;31.21;20.80;101024.00;5034655;28;20186;-58
2023/04/14 08:54:08;;;;;;;4.47;2.03;;;25.90;31.00;;;31.27;20.61;101022.75;5034285;28;20230;-58
2023/04/14 08:56:38;;;;;;;3.80;2.43;;;25.90;31.50;;;31.73;20.92;101022.56;5035606;28;20190;-61
2023/04/14 08:59:06;;;;;;;2.60;1.50;;;26.10;32.80;;;31.83;19.83;101020.41;5035009;28;20191;-60
2023/04/14 09:01:35;;;;;;;2.93;1.73;;;26.10;29.80;;;31.80;20.48;101018.31;5035620;28;20229;-64
2023/04/14 09:04:03;;;;;;;5.67;2.30;;;26.20;30.40;;;31.60;19.64;101018.78;5035239;28;20234;-60
2023/04/14 09:06:34;;;;;;;4.00;1.70;;;26.10;29.60;;;31.39;20.34;101009.44;5035995;28;20191;-58
2023/04/14 09:09:04;;;;;;;5.03;2.27;;;26.10;30.00;;;31.73;20.10;101019.84;5018365;28;20234;-60
2023/04/14 09:11:31;;;;;;;4.50;4.07;;;26.30;30.30;;;32.19;19.15;101011.38;5034788;28;20213;-59
2023/04/14 09:13:59;;;;;;;5.67;3.57;;;26.40;30.30;;;32.64;19.21;101010.97;5033489;28;20218;-61
2023/04/14 09:16:27;;;;;;;9.30;6.43;;;26.60;29.80;;;33.11;19.07;101008.59;5035042;28;20195;-60
2023/04/14 09:18:56;;;;;;;4.47;2.23;;;26.90;30.10;;;33.55;18.92;101004.78;5017505;28;20294;-58
2023/04/14 09:21:35;;;;;;;3.57;2.10;;;27.30;29.60;;;33.39;18.35;101008.00;5034922;28;20201;-62
2023/04/14 09:24:27;;;;;;;4.20;2.10;;;27.20;28.50;;;32.90;18.48;101008.34;5034740;28;20583;-61
2023/04/14 09:27:00;;;;;;;4.87;1.67;;;27.00;28.30;;;32.22;19.04;101011.56;5035200;28;20535;-61
2023/04/14 09:29:28;;;;;;;6.00;3.90;;;26.90;28.80;;;31.71;20.04;101006.56;5035018;28;20218;-61
2023/04/14 09:31:55;;;;;;;5.23;3.57;;;26.70;29.50;;;31.16;20.83;101005.06;5034720;28;20199;-58
2023/04/14 09:34:22;;;;;;;4.30;2.27;;;26.60;29.60;;;31.46;20.41;101009.84;5033693;28;20221;-58
2023/04/14 09:37:04;;;;;;;2.97;2.20;;;26.40;30.10;;;32.45;19.82;100998.69;5034792;28;20191;-60
2023/04/14 09:39:31;;;;;;;3.27;2.43;;;26.50;30.60;;;33.54;18.75;101003.19;5034704;28;20198;-57
2023/04/14 09:41:58;;;;;;;3.67;2.43;;;26.70;29.70;;;34.37;17.82;101004.53;5035526;28;20191;-61
2023/04/14 09:44:25;;;;;;;5.63;3.00;;;27.00;29.10;;;34.79;17.47;100998.09;5034792;28;20229;-62
2023/04/14 09:46:58;;;;;;;4.72;2.40;;;27.40;28.90;;;35.19;16.84;100998.50;5050597;28;20201;-60
2023/04/14 09:49:25;;;;;;;4.45;2.67;;;27.80;28.40;;;35.27;16.28;101000.41;5046641;28;20209;-61
2023/04/14 09:51:56;;;;;;;4.50;2.42;;;28.00;27.70;;;35.54;17.07;100999.88;5030363;28;20199;-61
2023/04/14 09:54:25;;;;;;;4.55;2.28;;;28.20;27.80;;;35.85;16.07;100994.75;5034361;28;20218;-62
2023/04/14 09:56:53;;;;;;;3.70;2.05;;;28.50;27.20;;;36.05;15.65;100997.81;5035311;28;20194;-62
2023/04/14 09:59:32;;;;;;;6.60;3.85;;;28.70;26.00;;;36.42;16.03;100992.03;5035163;28;20202;-60
2023/04/14 10:02:03;;;;;;;3.38;2.30;;;29.00;27.00;;;36.35;15.79;100991.03;5035027;28;20277;-61
2023/04/14 10:04:31;;;;;;;3.55;2.10;;;29.30;26.10;;;34.94;15.89;100994.00;5034035;28;20286;-61
2023/04/14 10:06:58;;;;;;;6.00;3.30;;;29.10;25.70;;;33.17;17.02;100991.75;5035412;28;20655;-62
2023/04/14 10:09:29;;;;;;;10.90;9.83;;;28.50;25.40;;;31.59;18.66;100995.41;5035095;28;20233;-62
2023/04/14 10:12:11;;;;;;;6.77;3.00;;;27.80;26.10;;;30.63;19.55;100991.16;5035388;28;20709;-60
2023/04/14 10:14:40;;;;;;;3.93;2.53;;;27.00;26.70;;;30.97;19.99;100990.78;5032654;28;20229;-61
2023/04/14 10:17:08;;;;;;;4.43;2.30;;;26.50;28.00;;;31.41;19.24;100985.44;5034676;28;20199;-59
2023/04/14 10:19:36;;;;;;;2.70;1.50;;;26.30;28.20;;;32.16;18.07;100984.75;5034662;28;20189;-60
2023/04/14 10:22:05;;;;;;;4.23;1.83;;;26.30;27.30;;;31.68;17.59;100985.38;5032884;28;20233;-61
2023/04/14 10:24:33;;;;;;;4.60;2.03;;;26.20;27.00;;;30.75;17.96;100984.09;5033429;28;20210;-59
2023/04/14 10:27:02;;;;;;;3.97;1.87;;;26.00;26.60;;;30.00;19.39;100974.63;5034490;28;20193;-60
2023/04/14 10:29:29;;;;;;;4.13;1.90;;;25.70;27.00;;;29.26;19.69;100981.69;5034319;28;20190;-60